sensor_id;sensor_type;location;lat;lon;timestamp;pressure;altitude;pressure_sealevel;temperature;humidity
11347;BME280;5728;42.722;23.258;2023-12-14T00:02:20;93756.53;;;7.12;89.73
11347;BME280;5728;42.722;23.258;2023-12-14T00:04:47;93790.88;;;7.14;90.17
11347;BME280;5728;42.722;23.258;2023-12-14T00:07:14;93758.50;;;6.97;90.62
11347;BME280;5728;42.722;23.258;2023-12-14T00:09:43;93757.53;;;7.03;90.36
11347;BME280;5728;42.722;23.258;2023-12-14T00:12:10;93780.16;;;6.89;90.82
11347;BME280;5728;42.722;23.258;2023-12-14T00:14:37;93776.75;;;6.87;91.24
11347;BME280;5728;42.722;23.258;2023-12-14T00:17:04;93782.47;;;7.02;91.21
11347;BME280;5728;42.722;23.258;2023-12-14T00:19:31;93785.06;;;7.01;90.21
11347;BME280;5728;42.722;23.258;2023-12-14T00:21:58;93768.94;;;6.91;91.71
11347;BME280;5728;42.722;23.258;2023-12-14T00:24:26;93791.13;;;6.98;91.28
11347;BME280;5728;42.722;23.258;2023-12-14T00:26:55;93773.91;;;7.00;90.97
11347;BME280;5728;42.722;23.258;2023-12-14T00:29:23;93798.41;;;7.23;92.04
11347;BME280;5728;42.722;23.258;2023-12-14T00:31:50;93757.34;;;7.14;90.14
11347;BME280;5728;42.722;23.258;2023-12-14T00:34:17;93763.88;;;6.85;90.29
11347;BME280;5728;42.722;23.258;2023-12-14T00:36:44;93801.19;;;6.63;92.28
11347;BME280;5728;42.722;23.258;2023-12-14T00:39:11;93791.75;;;6.62;93.16
11347;BME280;5728;42.722;23.258;2023-12-14T00:41:39;93758.94;;;6.20;94.30
11347;BME280;5728;42.722;23.258;2023-12-14T00:44:07;93791.88;;;6.55;94.10
11347;BME280;5728;42.722;23.258;2023-12-14T00:46:35;93771.09;;;6.65;93.47
11347;BME280;5728;42.722;23.258;2023-12-14T00:49:03;93768.88;;;6.44;93.73
11347;BME280;5728;42.722;23.258;2023-12-14T00:51:30;93794.09;;;6.24;94.42
11347;BME280;5728;42.722;23.258;2023-12-14T00:53:57;93766.56;;;6.29;95.92
11347;BME280;5728;42.722;23.258;2023-12-14T00:56:24;93795.72;;;6.28;95.17
11347;BME280;5728;42.722;23.258;2023-12-14T00:58:51;93794.59;;;6.46;95.18
11347;BME280;5728;42.722;23.258;2023-12-14T01:01:19;93776.19;;;6.68;95.35
11347;BME280;5728;42.722;23.258;2023-12-14T01:03:46;93788.81;;;6.31;93.98
11347;BME280;5728;42.722;23.258;2023-12-14T01:06:13;93784.13;;;6.55;94.65
11347;BME280;5728;42.722;23.258;2023-12-14T01:08:40;93770.38;;;6.57;94.64
11347;BME280;5728;42.722;23.258;2023-12-14T01:11:07;93779.59;;;6.72;93.77
11347;BME280;5728;42.722;23.258;2023-12-14T01:13:34;93766.91;;;6.05;95.10
11347;BME280;5728;42.722;23.258;2023-12-14T01:16:01;93782.75;;;6.35;95.13
11347;BME280;5728;42.722;23.258;2023-12-14T01:18:29;93787.81;;;6.41;94.47
11347;BME280;5728;42.722;23.258;2023-12-14T01:20:57;93777.28;;;5.99;95.24
11347;BME280;5728;42.722;23.258;2023-12-14T01:23:24;93760.94;;;6.03;96.07
11347;BME280;5728;42.722;23.258;2023-12-14T01:25:50;93777.16;;;6.08;96.15
11347;BME280;5728;42.722;23.258;2023-12-14T01:28:17;93766.00;;;6.09;95.74
11347;BME280;5728;42.722;23.258;2023-12-14T01:30:44;93770.63;;;5.82;96.66
11347;BME280;5728;42.722;23.258;2023-12-14T01:33:11;93763.34;;;6.12;96.58
11347;BME280;5728;42.722;23.258;2023-12-14T01:35:40;93790.25;;;6.49;94.13
11347;BME280;5728;42.722;23.258;2023-12-14T01:38:07;93768.56;;;6.09;94.74
11347;BME280;5728;42.722;23.258;2023-12-14T01:40:33;93763.81;;;5.78;95.68
11347;BME280;5728;42.722;23.258;2023-12-14T01:43:07;93758.41;;;6.00;96.67
11347;BME280;5728;42.722;23.258;2023-12-14T01:45:36;93762.19;;;5.71;96.58
11347;BME280;5728;42.722;23.258;2023-12-14T01:48:03;93768.91;;;5.83;96.98
11347;BME280;5728;42.722;23.258;2023-12-14T01:50:30;93739.75;;;5.86;96.25
11347;BME280;5728;42.722;23.258;2023-12-14T01:52:58;93764.16;;;5.51;96.87
11347;BME280;5728;42.722;23.258;2023-12-14T01:55:25;93752.00;;;5.65;97.70
11347;BME280;5728;42.722;23.258;2023-12-14T01:57:53;93770.59;;;5.89;96.53
11347;BME280;5728;42.722;23.258;2023-12-14T02:00:28;93759.81;;;5.56;97.32
11347;BME280;5728;42.722;23.258;2023-12-14T02:02:58;93744.84;;;5.89;97.62
11347;BME280;5728;42.722;23.258;2023-12-14T02:05:25;93756.19;;;5.72;96.68
11347;BME280;5728;42.722;23.258;2023-12-14T02:07:52;93743.50;;;5.59;97.05
11347;BME280;5728;42.722;23.258;2023-12-14T02:10:20;93769.16;;;5.63;96.81
11347;BME280;5728;42.722;23.258;2023-12-14T02:12:47;93718.66;;;5.56;97.47
11347;BME280;5728;42.722;23.258;2023-12-14T02:15:14;93745.44;;;5.43;97.94
11347;BME280;5728;42.722;23.258;2023-12-14T02:17:41;93727.97;;;5.66;98.12
11347;BME280;5728;42.722;23.258;2023-12-14T02:20:08;93747.47;;;5.86;97.01
11347;BME280;5728;42.722;23.258;2023-12-14T02:22:48;93722.78;;;5.69;96.50
11347;BME280;5728;42.722;23.258;2023-12-14T02:25:16;93737.06;;;5.92;96.84
11347;BME280;5728;42.722;23.258;2023-12-14T02:27:42;93730.75;;;6.14;96.81
11347;BME280;5728;42.722;23.258;2023-12-14T02:30:10;93725.66;;;6.11;96.03
11347;BME280;5728;42.722;23.258;2023-12-14T02:32:38;93757.75;;;5.82;96.25
11347;BME280;5728;42.722;23.258;2023-12-14T02:35:06;93720.78;;;5.93;97.15
11347;BME280;5728;42.722;23.258;2023-12-14T02:37:34;93722.13;;;6.15;96.43
11347;BME280;5728;42.722;23.258;2023-12-14T02:40:04;93748.06;;;6.03;95.86
11347;BME280;5728;42.722;23.258;2023-12-14T02:42:32;93739.63;;;5.92;96.92
11347;BME280;5728;42.722;23.258;2023-12-14T02:44:59;93738.94;;;6.37;96.06
11347;BME280;5728;42.722;23.258;2023-12-14T02:47:27;93742.75;;;6.13;95.04
11347;BME280;5728;42.722;23.258;2023-12-14T02:49:54;93726.97;;;6.36;95.55
11347;BME280;5728;42.722;23.258;2023-12-14T02:52:21;93765.47;;;6.43;94.30
11347;BME280;5728;42.722;23.258;2023-12-14T02:54:49;93749.28;;;6.35;94.89
11347;BME280;5728;42.722;23.258;2023-12-14T02:57:17;93738.88;;;6.41;94.76
11347;BME280;5728;42.722;23.258;2023-12-14T02:59:44;93726.78;;;6.45;94.60
11347;BME280;5728;42.722;23.258;2023-12-14T03:02:11;93753.16;;;6.61;94.46
11347;BME280;5728;42.722;23.258;2023-12-14T03:04:38;93739.34;;;6.65;93.88
11347;BME280;5728;42.722;23.258;2023-12-14T03:07:05;93729.88;;;6.65;93.73
11347;BME280;5728;42.722;23.258;2023-12-14T03:09:33;93731.81;;;7.00;92.03
11347;BME280;5728;42.722;23.258;2023-12-14T03:12:00;93744.97;;;6.86;91.50
11347;BME280;5728;42.722;23.258;2023-12-14T03:14:32;93714.00;;;6.89;92.26
11347;BME280;5728;42.722;23.258;2023-12-14T03:16:59;93745.50;;;7.03;91.40
11347;BME280;5728;42.722;23.258;2023-12-14T03:19:26;93732.56;;;7.06;91.50
11347;BME280;5728;42.722;23.258;2023-12-14T03:21:53;93715.44;;;7.02;90.98
11347;BME280;5728;42.722;23.258;2023-12-14T03:24:20;93735.00;;;7.14;91.09
11347;BME280;5728;42.722;23.258;2023-12-14T03:26:47;93715.41;;;7.05;90.90
11347;BME280;5728;42.722;23.258;2023-12-14T03:29:14;93704.75;;;7.24;90.71
11347;BME280;5728;42.722;23.258;2023-12-14T03:31:42;93729.03;;;7.12;90.37
11347;BME280;5728;42.722;23.258;2023-12-14T03:34:10;93724.56;;;7.22;90.51
11347;BME280;5728;42.722;23.258;2023-12-14T03:36:37;93701.81;;;6.97;91.74
11347;BME280;5728;42.722;23.258;2023-12-14T03:39:04;93697.59;;;6.93;91.65
11347;BME280;5728;42.722;23.258;2023-12-14T03:41:31;93678.53;;;7.02;91.71
11347;BME280;5728;42.722;23.258;2023-12-14T03:43:58;93693.63;;;7.22;91.05
11347;BME280;5728;42.722;23.258;2023-12-14T03:46:25;93685.72;;;7.28;91.59
11347;BME280;5728;42.722;23.258;2023-12-14T03:48:53;93687.03;;;7.07;91.54
11347;BME280;5728;42.722;23.258;2023-12-14T03:51:20;93710.38;;;6.99;91.31
11347;BME280;5728;42.722;23.258;2023-12-14T03:53:47;93674.00;;;7.15;91.71
11347;BME280;5728;42.722;23.258;2023-12-14T03:56:14;93681.13;;;7.00;91.22
11347;BME280;5728;42.722;23.258;2023-12-14T03:58:41;93711.81;;;7.13;90.92
11347;BME280;5728;42.722;23.258;2023-12-14T04:01:08;93657.13;;;6.98;91.42
11347;BME280;5728;42.722;23.258;2023-12-14T04:03:35;93688.91;;;6.99;91.55
11347;BME280;5728;42.722;23.258;2023-12-14T04:06:04;93664.19;;;7.32;91.45
11347;BME280;5728;42.722;23.258;2023-12-14T04:08:30;93684.88;;;7.29;89.84
11347;BME280;5728;42.722;23.258;2023-12-14T04:10:57;93684.91;;;7.27;90.22
11347;BME280;5728;42.722;23.258;2023-12-14T04:13:24;93691.75;;;7.28;90.15
11347;BME280;5728;42.722;23.258;2023-12-14T04:15:51;93726.47;;;7.53;89.82
11347;BME280;5728;42.722;23.258;2023-12-14T04:18:18;93690.41;;;7.52;90.33
11347;BME280;5728;42.722;23.258;2023-12-14T04:20:45;93724.34;;;7.31;90.11
11347;BME280;5728;42.722;23.258;2023-12-14T04:23:13;93676.09;;;7.37;89.75
11347;BME280;5728;42.722;23.258;2023-12-14T04:25:40;93704.34;;;7.00;90.21
11347;BME280;5728;42.722;23.258;2023-12-14T04:28:07;93725.91;;;6.96;91.80
11347;BME280;5728;42.722;23.258;2023-12-14T04:30:34;93710.53;;;6.90;91.34
11347;BME280;5728;42.722;23.258;2023-12-14T04:33:01;93727.28;;;7.13;90.81
11347;BME280;5728;42.722;23.258;2023-12-14T04:35:28;93704.69;;;7.27;91.15
11347;BME280;5728;42.722;23.258;2023-12-14T04:37:56;93701.22;;;7.28;90.20
11347;BME280;5728;42.722;23.258;2023-12-14T04:40:25;93691.75;;;7.28;89.96
11347;BME280;5728;42.722;23.258;2023-12-14T04:42:52;93701.09;;;7.34;90.19
11347;BME280;5728;42.722;23.258;2023-12-14T04:45:19;93688.75;;;7.06;90.91
11347;BME280;5728;42.722;23.258;2023-12-14T04:47:46;93670.50;;;7.17;90.90
11347;BME280;5728;42.722;23.258;2023-12-14T04:50:13;93689.63;;;7.05;91.46
11347;BME280;5728;42.722;23.258;2023-12-14T04:52:41;93711.72;;;7.19;91.14
11347;BME280;5728;42.722;23.258;2023-12-14T04:55:08;93732.09;;;7.31;90.65
11347;BME280;5728;42.722;23.258;2023-12-14T04:57:37;93700.06;;;7.42;91.40
11347;BME280;5728;42.722;23.258;2023-12-14T05:00:04;93726.47;;;7.55;90.22
11347;BME280;5728;42.722;23.258;2023-12-14T05:02:33;93709.53;;;7.42;90.82
11347;BME280;5728;42.722;23.258;2023-12-14T05:05:00;93716.16;;;7.53;91.07
11347;BME280;5728;42.722;23.258;2023-12-14T05:07:27;93712.97;;;7.41;90.24
11347;BME280;5728;42.722;23.258;2023-12-14T05:09:55;93696.63;;;7.42;90.50
11347;BME280;5728;42.722;23.258;2023-12-14T05:12:22;93700.50;;;7.21;90.97
11347;BME280;5728;42.722;23.258;2023-12-14T05:14:52;93692.00;;;7.16;91.62
11347;BME280;5728;42.722;23.258;2023-12-14T05:17:19;93719.06;;;6.92;92.14
11347;BME280;5728;42.722;23.258;2023-12-14T05:19:46;93721.50;;;7.00;93.00
11347;BME280;5728;42.722;23.258;2023-12-14T05:22:13;93726.88;;;6.89;93.07
11347;BME280;5728;42.722;23.258;2023-12-14T05:24:40;93698.66;;;6.83;92.90
11347;BME280;5728;42.722;23.258;2023-12-14T05:27:07;93705.84;;;6.66;93.20
11347;BME280;5728;42.722;23.258;2023-12-14T05:29:34;93747.13;;;6.60;93.13
11347;BME280;5728;42.722;23.258;2023-12-14T05:32:02;93717.94;;;6.60;94.78
11347;BME280;5728;42.722;23.258;2023-12-14T05:34:29;93720.16;;;6.81;94.67
11347;BME280;5728;42.722;23.258;2023-12-14T05:36:56;93725.84;;;6.98;93.98
11347;BME280;5728;42.722;23.258;2023-12-14T05:39:23;93737.06;;;6.48;94.87
11347;BME280;5728;42.722;23.258;2023-12-14T05:41:50;93720.78;;;6.46;95.02
11347;BME280;5728;42.722;23.258;2023-12-14T05:44:17;93749.22;;;6.37;95.26
11347;BME280;5728;42.722;23.258;2023-12-14T05:46:44;93710.38;;;6.52;95.65
11347;BME280;5728;42.722;23.258;2023-12-14T05:49:12;93746.41;;;6.54;94.67
11347;BME280;5728;42.722;23.258;2023-12-14T05:51:40;93734.03;;;6.72;94.44
11347;BME280;5728;42.722;23.258;2023-12-14T05:54:07;93740.19;;;6.67;93.85
11347;BME280;5728;42.722;23.258;2023-12-14T05:56:34;93742.00;;;6.60;93.73
11347;BME280;5728;42.722;23.258;2023-12-14T05:59:01;93716.34;;;6.54;94.46
11347;BME280;5728;42.722;23.258;2023-12-14T06:01:28;93737.72;;;6.59;94.90
11347;BME280;5728;42.722;23.258;2023-12-14T06:03:55;93743.13;;;6.94;93.41
11347;BME280;5728;42.722;23.258;2023-12-14T06:06:23;93756.34;;;7.21;92.40
11347;BME280;5728;42.722;23.258;2023-12-14T06:08:50;93736.16;;;6.99;91.99
11347;BME280;5728;42.722;23.258;2023-12-14T06:11:17;93736.38;;;7.32;92.84
11347;BME280;5728;42.722;23.258;2023-12-14T06:13:45;93758.00;;;7.25;91.00
11347;BME280;5728;42.722;23.258;2023-12-14T06:16:12;93729.97;;;7.08;91.80
11347;BME280;5728;42.722;23.258;2023-12-14T06:18:39;93740.13;;;7.17;91.99
11347;BME280;5728;42.722;23.258;2023-12-14T06:21:10;93755.50;;;7.20;91.89
11347;BME280;5728;42.722;23.258;2023-12-14T06:23:39;93747.09;;;7.55;91.60
11347;BME280;5728;42.722;23.258;2023-12-14T06:26:06;93756.25;;;7.27;91.12
11347;BME280;5728;42.722;23.258;2023-12-14T06:28:33;93768.81;;;7.43;90.15
11347;BME280;5728;42.722;23.258;2023-12-14T06:31:00;93772.44;;;7.35;90.07
11347;BME280;5728;42.722;23.258;2023-12-14T06:33:27;93750.84;;;7.39;90.96
11347;BME280;5728;42.722;23.258;2023-12-14T06:35:54;93791.00;;;7.50;90.21
11347;BME280;5728;42.722;23.258;2023-12-14T06:38:21;93764.13;;;7.62;90.70
11347;BME280;5728;42.722;23.258;2023-12-14T06:40:50;93760.22;;;7.84;90.06
11347;BME280;5728;42.722;23.258;2023-12-14T06:43:17;93767.53;;;7.64;89.30
11347;BME280;5728;42.722;23.258;2023-12-14T06:45:44;93789.47;;;7.83;88.42
11347;BME280;5728;42.722;23.258;2023-12-14T06:48:11;93782.97;;;7.65;89.97
11347;BME280;5728;42.722;23.258;2023-12-14T06:50:37;93765.81;;;7.63;89.36
11347;BME280;5728;42.722;23.258;2023-12-14T06:53:04;93776.94;;;7.66;89.24
11347;BME280;5728;42.722;23.258;2023-12-14T06:55:31;93768.66;;;7.92;89.64
11347;BME280;5728;42.722;23.258;2023-12-14T06:58:00;93763.63;;;7.86;89.45
11347;BME280;5728;42.722;23.258;2023-12-14T07:00:27;93795.97;;;8.02;88.42
11347;BME280;5728;42.722;23.258;2023-12-14T07:02:54;93777.78;;;8.07;89.92
11347;BME280;5728;42.722;23.258;2023-12-14T07:05:21;93788.66;;;7.81;87.53
11347;BME280;5728;42.722;23.258;2023-12-14T07:07:48;93796.13;;;7.95;87.53
11347;BME280;5728;42.722;23.258;2023-12-14T07:10:16;93774.56;;;7.97;87.90
11347;BME280;5728;42.722;23.258;2023-12-14T07:12:43;93806.03;;;7.75;88.06
11347;BME280;5728;42.722;23.258;2023-12-14T07:15:11;93809.75;;;8.01;87.65
11347;BME280;5728;42.722;23.258;2023-12-14T07:17:38;93817.22;;;8.15;87.49
11347;BME280;5728;42.722;23.258;2023-12-14T07:20:07;93804.13;;;8.22;87.67
11347;BME280;5728;42.722;23.258;2023-12-14T07:22:34;93824.78;;;8.22;86.50
11347;BME280;5728;42.722;23.258;2023-12-14T07:25:01;93815.31;;;8.63;85.09
11347;BME280;5728;42.722;23.258;2023-12-14T07:27:29;93822.44;;;8.52;85.39
11347;BME280;5728;42.722;23.258;2023-12-14T07:29:56;93804.00;;;8.67;86.76
11347;BME280;5728;42.722;23.258;2023-12-14T07:32:24;93802.75;;;8.83;83.85
11347;BME280;5728;42.722;23.258;2023-12-14T07:34:52;93806.00;;;8.56;84.90
11347;BME280;5728;42.722;23.258;2023-12-14T07:37:20;93813.41;;;8.32;85.32
11347;BME280;5728;42.722;23.258;2023-12-14T07:39:48;93799.53;;;8.38;86.31
11347;BME280;5728;42.722;23.258;2023-12-14T07:42:15;93824.16;;;8.53;85.85
11347;BME280;5728;42.722;23.258;2023-12-14T07:44:45;93817.81;;;8.66;86.33
11347;BME280;5728;42.722;23.258;2023-12-14T07:47:12;93823.91;;;8.63;84.76
11347;BME280;5728;42.722;23.258;2023-12-14T07:49:41;93836.03;;;8.60;85.74
11347;BME280;5728;42.722;23.258;2023-12-14T07:52:08;93817.88;;;8.98;85.14
11347;BME280;5728;42.722;23.258;2023-12-14T07:54:35;93850.50;;;8.67;84.34
11347;BME280;5728;42.722;23.258;2023-12-14T07:57:02;93806.63;;;9.01;83.92
11347;BME280;5728;42.722;23.258;2023-12-14T07:59:29;93834.13;;;9.03;82.66
11347;BME280;5728;42.722;23.258;2023-12-14T08:01:56;93808.28;;;9.03;83.44
11347;BME280;5728;42.722;23.258;2023-12-14T08:04:23;93841.28;;;9.27;82.26
11347;BME280;5728;42.722;23.258;2023-12-14T08:06:52;93843.53;;;9.39;82.23
11347;BME280;5728;42.722;23.258;2023-12-14T08:09:19;93836.81;;;9.32;82.30
11347;BME280;5728;42.722;23.258;2023-12-14T08:11:45;93838.66;;;9.61;81.68
11347;BME280;5728;42.722;23.258;2023-12-14T08:14:12;93839.28;;;9.38;81.86
11347;BME280;5728;42.722;23.258;2023-12-14T08:16:40;93829.44;;;9.51;82.76
11347;BME280;5728;42.722;23.258;2023-12-14T08:19:07;93840.41;;;9.60;80.47
11347;BME280;5728;42.722;23.258;2023-12-14T08:21:33;93823.91;;;9.32;81.98
11347;BME280;5728;42.722;23.258;2023-12-14T08:24:02;93820.34;;;9.36;81.39
11347;BME280;5728;42.722;23.258;2023-12-14T08:26:29;93833.81;;;9.49;81.89
11347;BME280;5728;42.722;23.258;2023-12-14T08:28:56;93839.50;;;9.92;80.71
11347;BME280;5728;42.722;23.258;2023-12-14T08:31:23;93832.53;;;10.27;80.49
11347;BME280;5728;42.722;23.258;2023-12-14T08:33:50;93824.53;;;10.34;79.38
11347;BME280;5728;42.722;23.258;2023-12-14T08:36:18;93833.38;;;10.55;78.84
11347;BME280;5728;42.722;23.258;2023-12-14T08:38:44;93828.66;;;10.67;78.17
11347;BME280;5728;42.722;23.258;2023-12-14T08:41:14;93828.97;;;10.86;77.02
11347;BME280;5728;42.722;23.258;2023-12-14T08:43:41;93846.41;;;10.81;77.26
11347;BME280;5728;42.722;23.258;2023-12-14T08:46:08;93838.66;;;11.07;77.28
11347;BME280;5728;42.722;23.258;2023-12-14T08:48:35;93837.78;;;10.80;75.77
11347;BME280;5728;42.722;23.258;2023-12-14T08:51:03;93828.72;;;10.94;76.47
11347;BME280;5728;42.722;23.258;2023-12-14T08:53:30;93841.47;;;11.27;76.31
11347;BME280;5728;42.722;23.258;2023-12-14T08:55:57;93847.22;;;11.35;75.58
11347;BME280;5728;42.722;23.258;2023-12-14T08:58:26;93857.94;;;11.51;75.64
11347;BME280;5728;42.722;23.258;2023-12-14T09:00:53;93846.97;;;11.69;75.24
11347;BME280;5728;42.722;23.258;2023-12-14T09:03:20;93857.75;;;12.08;74.36
11347;BME280;5728;42.722;23.258;2023-12-14T09:05:47;93855.94;;;11.85;72.60
11347;BME280;5728;42.722;23.258;2023-12-14T09:08:14;93849.66;;;12.15;73.40
11347;BME280;5728;42.722;23.258;2023-12-14T09:10:41;93848.63;;;12.20;71.07
11347;BME280;5728;42.722;23.258;2023-12-14T09:13:08;93832.94;;;12.23;72.85
11347;BME280;5728;42.722;23.258;2023-12-14T09:15:36;93833.94;;;12.42;72.64
11347;BME280;5728;42.722;23.258;2023-12-14T09:18:03;93825.81;;;12.51;70.26
11347;BME280;5728;42.722;23.258;2023-12-14T09:20:30;93836.25;;;12.94;69.02
11347;BME280;5728;42.722;23.258;2023-12-14T09:22:58;93843.22;;;12.94;69.20
11347;BME280;5728;42.722;23.258;2023-12-14T09:25:24;93833.88;;;13.11;68.64
11347;BME280;5728;42.722;23.258;2023-12-14T09:27:51;93832.63;;;12.98;69.73
11347;BME280;5728;42.722;23.258;2023-12-14T09:30:19;93850.41;;;12.87;72.20
11347;BME280;5728;42.722;23.258;2023-12-14T09:32:47;93857.88;;;12.96;73.00
11347;BME280;5728;42.722;23.258;2023-12-14T09:35:14;93866.41;;;12.76;73.01
11347;BME280;5728;42.722;23.258;2023-12-14T09:37:41;93873.19;;;12.36;75.59
11347;BME280;5728;42.722;23.258;2023-12-14T09:40:09;93869.44;;;12.43;76.34
11347;BME280;5728;42.722;23.258;2023-12-14T09:42:38;93870.06;;;11.50;78.87
11347;BME280;5728;42.722;23.258;2023-12-14T09:45:07;93854.25;;;11.06;81.52
11347;BME280;5728;42.722;23.258;2023-12-14T09:47:35;93855.84;;;10.83;82.11
11347;BME280;5728;42.722;23.258;2023-12-14T09:50:04;93870.13;;;10.97;84.01
11347;BME280;5728;42.722;23.258;2023-12-14T09:52:31;93868.44;;;11.22;82.41
11347;BME280;5728;42.722;23.258;2023-12-14T09:54:59;93866.78;;;11.45;81.59
11347;BME280;5728;42.722;23.258;2023-12-14T09:57:29;93874.53;;;11.47;79.64
11347;BME280;5728;42.722;23.258;2023-12-14T09:59:56;93870.19;;;11.47;79.93
11347;BME280;5728;42.722;23.258;2023-12-14T10:02:25;93862.81;;;12.11;79.41
11347;BME280;5728;42.722;23.258;2023-12-14T10:04:53;93883.13;;;12.48;77.35
11347;BME280;5728;42.722;23.258;2023-12-14T10:07:22;93852.91;;;12.67;75.83
11347;BME280;5728;42.722;23.258;2023-12-14T10:09:49;93859.81;;;12.68;74.86
11347;BME280;5728;42.722;23.258;2023-12-14T10:12:17;93858.28;;;12.86;75.24
11347;BME280;5728;42.722;23.258;2023-12-14T10:14:45;93870.22;;;12.68;75.09
11347;BME280;5728;42.722;23.258;2023-12-14T10:17:17;93857.16;;;12.69;74.80
11347;BME280;5728;42.722;23.258;2023-12-14T10:19:45;93856.75;;;12.80;75.55
11347;BME280;5728;42.722;23.258;2023-12-14T10:22:13;93861.72;;;12.86;75.85
11347;BME280;5728;42.722;23.258;2023-12-14T10:24:44;93857.34;;;12.87;75.56
11347;BME280;5728;42.722;23.258;2023-12-14T10:27:14;93856.13;;;13.18;74.20
11347;BME280;5728;42.722;23.258;2023-12-14T10:29:41;93854.75;;;12.65;76.70
11347;BME280;5728;42.722;23.258;2023-12-14T10:32:10;93863.69;;;12.35;79.06
11347;BME280;5728;42.722;23.258;2023-12-14T10:34:37;93858.53;;;12.10;80.73
11347;BME280;5728;42.722;23.258;2023-12-14T10:37:05;93871.28;;;11.93;82.23
11347;BME280;5728;42.722;23.258;2023-12-14T10:39:33;93880.00;;;12.15;82.64
11347;BME280;5728;42.722;23.258;2023-12-14T10:42:04;93877.03;;;11.76;84.87
11347;BME280;5728;42.722;23.258;2023-12-14T10:44:35;93885.56;;;11.53;86.69
11347;BME280;5728;42.722;23.258;2023-12-14T10:47:03;93882.97;;;11.53;87.59
11347;BME280;5728;42.722;23.258;2023-12-14T10:49:31;93896.09;;;11.23;88.26
11347;BME280;5728;42.722;23.258;2023-12-14T10:52:00;93901.91;;;11.03;89.17
11347;BME280;5728;42.722;23.258;2023-12-14T10:54:32;93900.72;;;10.85;89.13
11347;BME280;5728;42.722;23.258;2023-12-14T10:57:05;93890.81;;;10.70;89.71
11347;BME280;5728;42.722;23.258;2023-12-14T10:59:34;93901.91;;;10.46;89.53
11347;BME280;5728;42.722;23.258;2023-12-14T11:02:07;93915.03;;;10.40;89.34
11347;BME280;5728;42.722;23.258;2023-12-14T11:04:56;93921.22;;;10.35;89.15
11347;BME280;5728;42.722;23.258;2023-12-14T11:07:48;93926.66;;;10.27;89.79
11347;BME280;5728;42.722;23.258;2023-12-14T11:10:20;93931.34;;;10.13;89.16
11347;BME280;5728;42.722;23.258;2023-12-14T11:12:55;93949.72;;;10.04;88.25
11347;BME280;5728;42.722;23.258;2023-12-14T11:15:23;93937.03;;;9.93;88.21
11347;BME280;5728;42.722;23.258;2023-12-14T11:18:20;93947.19;;;9.69;88.12
11347;BME280;5728;42.722;23.258;2023-12-14T11:20:48;93949.72;;;9.70;89.04
11347;BME280;5728;42.722;23.258;2023-12-14T11:23:16;93954.13;;;9.67;88.28
11347;BME280;5728;42.722;23.258;2023-12-14T11:25:48;93964.50;;;9.67;88.08
11347;BME280;5728;42.722;23.258;2023-12-14T11:28:16;93964.56;;;9.63;87.51
11347;BME280;5728;42.722;23.258;2023-12-14T11:30:44;93974.00;;;9.64;87.11
11347;BME280;5728;42.722;23.258;2023-12-14T11:33:11;93980.53;;;9.45;86.95
11347;BME280;5728;42.722;23.258;2023-12-14T11:35:38;93990.94;;;9.42;87.44
11347;BME280;5728;42.722;23.258;2023-12-14T11:38:06;93995.13;;;9.48;86.84
11347;BME280;5728;42.722;23.258;2023-12-14T11:40:38;93992.66;;;9.43;87.57
11347;BME280;5728;42.722;23.258;2023-12-14T11:43:06;94005.03;;;9.29;87.32
11347;BME280;5728;42.722;23.258;2023-12-14T11:45:35;93996.47;;;9.27;87.09
11347;BME280;5728;42.722;23.258;2023-12-14T11:48:03;94023.91;;;9.34;86.86
11347;BME280;5728;42.722;23.258;2023-12-14T11:50:31;94023.53;;;9.13;87.46
11347;BME280;5728;42.722;23.258;2023-12-14T11:52:59;94002.16;;;9.06;87.42
11347;BME280;5728;42.722;23.258;2023-12-14T11:55:26;94022.91;;;9.02;87.83
11347;BME280;5728;42.722;23.258;2023-12-14T11:57:53;94022.16;;;8.96;88.50
11347;BME280;5728;42.722;23.258;2023-12-14T12:00:23;94028.84;;;9.07;88.44
11347;BME280;5728;42.722;23.258;2023-12-14T12:02:52;94022.91;;;9.02;88.02
11347;BME280;5728;42.722;23.258;2023-12-14T12:05:36;94036.16;;;8.86;88.36
11347;BME280;5728;42.722;23.258;2023-12-14T12:08:04;94025.91;;;8.82;89.36
11347;BME280;5728;42.722;23.258;2023-12-14T12:10:31;94029.53;;;8.75;88.80
11347;BME280;5728;42.722;23.258;2023-12-14T12:13:00;94018.06;;;8.86;88.83
11347;BME280;5728;42.722;23.258;2023-12-14T12:15:27;94031.94;;;8.82;88.89
11347;BME280;5728;42.722;23.258;2023-12-14T12:17:55;94029.09;;;8.94;88.94
11347;BME280;5728;42.722;23.258;2023-12-14T12:20:22;94014.38;;;8.98;88.15
11347;BME280;5728;42.722;23.258;2023-12-14T12:22:51;94054.25;;;8.86;89.48
11347;BME280;5728;42.722;23.258;2023-12-14T12:25:18;94037.16;;;8.81;89.08
11347;BME280;5728;42.722;23.258;2023-12-14T12:27:46;94044.31;;;8.67;89.42
11347;BME280;5728;42.722;23.258;2023-12-14T12:30:13;94058.16;;;8.66;89.77
11347;BME280;5728;42.722;23.258;2023-12-14T12:32:40;94046.69;;;8.77;89.66
11347;BME280;5728;42.722;23.258;2023-12-14T12:35:09;94065.13;;;8.61;90.82
11347;BME280;5728;42.722;23.258;2023-12-14T12:37:36;94052.13;;;8.64;90.25
11347;BME280;5728;42.722;23.258;2023-12-14T12:40:03;94059.16;;;8.57;91.00
11347;BME280;5728;42.722;23.258;2023-12-14T12:42:31;94042.75;;;8.60;90.55
11347;BME280;5728;42.722;23.258;2023-12-14T12:44:58;94049.94;;;8.46;90.82
11347;BME280;5728;42.722;23.258;2023-12-14T12:47:26;94049.13;;;8.42;91.30
11347;BME280;5728;42.722;23.258;2023-12-14T12:49:53;94043.91;;;8.45;91.56
11347;BME280;5728;42.722;23.258;2023-12-14T12:52:21;94049.13;;;8.42;91.11
11347;BME280;5728;42.722;23.258;2023-12-14T12:54:48;94062.06;;;8.41;91.72
11347;BME280;5728;42.722;23.258;2023-12-14T12:57:15;94048.16;;;8.48;91.70
11347;BME280;5728;42.722;23.258;2023-12-14T12:59:43;94074.72;;;8.56;90.90
11347;BME280;5728;42.722;23.258;2023-12-14T13:02:10;94067.06;;;8.50;90.44
11347;BME280;5728;42.722;23.258;2023-12-14T13:04:38;94052.69;;;8.35;90.83
11347;BME280;5728;42.722;23.258;2023-12-14T13:07:05;94076.81;;;8.36;90.85
11347;BME280;5728;42.722;23.258;2023-12-14T13:09:33;94051.84;;;8.34;90.64
11347;BME280;5728;42.722;23.258;2023-12-14T13:12:00;94048.31;;;8.40;90.03
11347;BME280;5728;42.722;23.258;2023-12-14T13:14:28;94084.72;;;8.23;90.59